createdAt,value
2023-02-14T00:00:29.926Z,3.60
2023-02-14T00:02:57.210Z,3.47
2023-02-14T00:05:23.915Z,3.56
2023-02-14T00:07:50.664Z,3.64
2023-02-14T00:10:17.672Z,3.58
2023-02-14T00:12:44.444Z,3.54
2023-02-14T00:15:23.845Z,3.53
2023-02-14T00:17:56.074Z,3.50
2023-02-14T00:20:23.918Z,3.48
2023-02-14T00:22:50.887Z,3.43
2023-02-14T00:25:18.244Z,3.43
2023-02-14T00:27:44.946Z,3.52
2023-02-14T00:30:13.373Z,3.46
2023-02-14T00:32:41.613Z,3.38
2023-02-14T00:35:09.699Z,3.39
2023-02-14T00:37:36.573Z,3.35
2023-02-14T00:40:03.735Z,3.29
2023-02-14T00:42:31.206Z,3.22
2023-02-14T00:44:57.884Z,3.17
2023-02-14T00:47:24.529Z,3.23
2023-02-14T00:49:51.790Z,3.33
2023-02-14T00:52:18.598Z,3.32
2023-02-14T00:54:45.309Z,3.15
2023-02-14T00:57:13.974Z,3.07
2023-02-14T00:59:40.799Z,3.12
2023-02-14T01:02:07.592Z,3.23
2023-02-14T01:04:34.471Z,3.22
2023-02-14T01:07:01.090Z,3.09
2023-02-14T01:09:27.843Z,2.99
2023-02-14T01:11:54.546Z,3.08
2023-02-14T01:14:21.257Z,3.06
2023-02-14T01:16:49.831Z,3.12
2023-02-14T01:19:16.836Z,3.09
2023-02-14T01:21:43.731Z,3.16
2023-02-14T01:24:12.025Z,2.99
2023-02-14T01:26:39.773Z,2.96
2023-02-14T01:29:07.062Z,3.07
2023-02-14T01:31:35.486Z,3.08
2023-02-14T01:34:02.344Z,3.01
2023-02-14T01:36:35.696Z,2.95
2023-02-14T01:39:06.645Z,2.91
2023-02-14T01:41:36.240Z,2.97
2023-02-14T01:44:05.004Z,3.03
2023-02-14T01:46:37.552Z,2.97
2023-02-14T01:49:18.474Z,2.88
2023-02-14T01:51:52.853Z,2.93
2023-02-14T01:54:23.403Z,3.02
2023-02-14T01:56:56.918Z,3.02
2023-02-14T01:59:26.690Z,2.83
2023-02-14T02:01:54.183Z,2.81
2023-02-14T02:04:31.000Z,2.90
2023-02-14T02:07:03.970Z,2.87
2023-02-14T02:09:39.119Z,2.85
2023-02-14T02:12:05.826Z,2.84
2023-02-14T02:14:33.332Z,2.77
2023-02-14T02:17:25.417Z,2.88
2023-02-14T02:20:29.359Z,2.67
2023-02-14T02:23:07.048Z,2.75
2023-02-14T02:25:48.950Z,2.80
2023-02-14T02:28:26.747Z,2.72
2023-02-14T02:30:56.440Z,2.48
2023-02-14T02:33:56.859Z,2.44
2023-02-14T02:36:39.824Z,2.45
2023-02-14T02:39:15.131Z,2.41
2023-02-14T02:42:02.818Z,2.35
2023-02-14T02:44:41.882Z,2.43
2023-02-14T02:47:32.730Z,2.37
2023-02-14T02:50:45.262Z,2.37
2023-02-14T02:53:33.176Z,2.57
2023-02-14T02:56:40.816Z,2.51
2023-02-14T02:59:18.626Z,2.40
2023-02-14T03:02:05.582Z,2.39
2023-02-14T03:04:53.207Z,2.39
2023-02-14T03:07:36.751Z,2.47
2023-02-14T03:10:13.462Z,2.37
2023-02-14T03:13:01.018Z,2.28
2023-02-14T03:15:27.663Z,2.31
2023-02-14T03:18:16.121Z,2.32
2023-02-14T03:21:21.440Z,2.35
2023-02-14T03:23:57.938Z,2.34
2023-02-14T03:26:37.622Z,2.35
2023-02-14T03:29:22.402Z,2.41
2023-02-14T03:32:02.514Z,2.37
2023-02-14T03:34:33.093Z,2.28
2023-02-14T03:37:02.886Z,2.17
2023-02-14T03:39:59.533Z,2.36
2023-02-14T03:42:32.570Z,2.35
2023-02-14T03:45:02.370Z,2.27
2023-02-14T03:47:32.568Z,2.15
2023-02-14T03:50:31.789Z,2.21
2023-02-14T03:53:00.085Z,2.15
2023-02-14T03:56:02.481Z,2.26
2023-02-14T03:58:37.532Z,2.22
2023-02-14T04:01:15.490Z,2.20
2023-02-14T04:03:43.412Z,2.18
2023-02-14T04:06:10.619Z,2.08
2023-02-14T04:08:37.450Z,2.11
2023-02-14T04:11:05.596Z,2.16
2023-02-14T04:13:32.648Z,2.07
2023-02-14T04:15:59.330Z,2.16
2023-02-14T04:18:44.770Z,2.00
2023-02-14T04:21:11.626Z,2.04
2023-02-14T04:23:38.266Z,2.16
2023-02-14T04:26:05.201Z,2.06
2023-02-14T04:28:32.625Z,2.11
2023-02-14T04:31:04.694Z,2.05
2023-02-14T04:33:31.382Z,2.15
2023-02-14T04:35:58.035Z,2.02
2023-02-14T04:38:24.810Z,1.86
2023-02-14T04:40:51.959Z,1.88
2023-02-14T04:43:19.257Z,1.85
2023-02-14T04:45:47.218Z,1.87
2023-02-14T04:48:13.945Z,1.96
2023-02-14T04:50:40.610Z,2.05
2023-02-14T04:53:07.272Z,1.89
2023-02-14T04:55:33.922Z,1.83
2023-02-14T04:58:00.665Z,1.95
2023-02-14T05:00:27.266Z,1.89
2023-02-14T05:02:53.975Z,1.96
2023-02-14T05:05:20.749Z,1.93
2023-02-14T05:07:47.806Z,1.86
2023-02-14T05:10:15.064Z,1.70
2023-02-14T05:12:42.074Z,1.86
2023-02-14T05:15:09.613Z,1.78
2023-02-14T05:17:36.350Z,1.84
2023-02-14T05:20:05.897Z,1.81
2023-02-14T05:22:32.639Z,1.92
2023-02-14T05:24:59.175Z,1.81
2023-02-14T05:27:25.975Z,1.75
2023-02-14T05:29:52.657Z,1.69
2023-02-14T05:32:19.299Z,1.64
2023-02-14T05:34:45.998Z,1.54
2023-02-14T05:37:12.649Z,1.52
2023-02-14T05:39:39.260Z,1.62
2023-02-14T05:42:06.050Z,1.55
2023-02-14T05:44:32.674Z,1.52
2023-02-14T05:46:59.460Z,1.66
2023-02-14T05:49:26.097Z,1.68
2023-02-14T05:51:52.799Z,1.31
2023-02-14T05:54:19.504Z,1.55
2023-02-14T05:56:46.205Z,1.57
2023-02-14T05:59:14.229Z,1.59
2023-02-14T06:01:41.036Z,1.54
2023-02-14T06:04:07.745Z,1.55
2023-02-14T06:06:36.596Z,1.55
2023-02-14T06:09:03.523Z,1.54
2023-02-14T06:11:30.368Z,1.61
2023-02-14T06:13:57.814Z,1.59
2023-02-14T06:16:24.508Z,1.61
2023-02-14T06:18:51.158Z,1.44
2023-02-14T06:21:17.914Z,1.50
2023-02-14T06:23:44.511Z,1.33
2023-02-14T06:26:11.215Z,1.35
2023-02-14T06:28:37.818Z,1.39
2023-02-14T06:31:05.080Z,1.36
2023-02-14T06:33:31.818Z,1.46
2023-02-14T06:35:58.484Z,1.39
2023-02-14T06:38:25.141Z,1.34
2023-02-14T06:40:51.766Z,1.23
2023-02-14T06:43:18.341Z,1.17
2023-02-14T06:45:46.608Z,1.15
2023-02-14T06:48:13.292Z,1.32
2023-02-14T06:50:39.905Z,1.28
2023-02-14T06:53:06.557Z,1.41
2023-02-14T06:55:33.269Z,1.40
2023-02-14T06:57:59.894Z,1.52
2023-02-14T07:00:26.579Z,1.45
2023-02-14T07:02:53.212Z,1.53
2023-02-14T07:05:20.009Z,1.38
2023-02-14T07:07:46.692Z,1.33
2023-02-14T07:10:13.824Z,1.32
2023-02-14T07:12:40.600Z,1.52
2023-02-14T07:15:09.082Z,1.58
2023-02-14T07:17:36.026Z,1.53
2023-02-14T07:20:03.305Z,1.49
2023-02-14T07:22:30.533Z,1.61
2023-02-14T07:24:57.259Z,1.66
2023-02-14T07:27:23.861Z,1.58
2023-02-14T07:29:50.588Z,1.60
2023-02-14T07:32:17.605Z,1.61
2023-02-14T07:34:44.340Z,1.68
2023-02-14T07:37:11.449Z,1.72
2023-02-14T07:39:38.080Z,1.67
2023-02-14T07:42:04.797Z,1.71
2023-02-14T07:44:32.295Z,1.78
2023-02-14T07:46:59.046Z,1.95
2023-02-14T07:49:25.872Z,2.11
2023-02-14T07:51:52.507Z,2.20
2023-02-14T07:54:20.362Z,2.24
2023-02-14T07:56:47.054Z,2.23
2023-02-14T07:59:13.944Z,2.24
2023-02-14T08:01:40.684Z,2.32
2023-02-14T08:04:07.992Z,2.34
2023-02-14T08:06:35.121Z,2.37
2023-02-14T08:09:01.831Z,2.46
2023-02-14T08:11:46.875Z,2.48
2023-02-14T08:14:13.645Z,2.62
2023-02-14T08:16:40.236Z,2.71
2023-02-14T08:19:06.906Z,2.70
2023-02-14T08:21:33.652Z,2.80
2023-02-14T08:24:00.787Z,2.90
2023-02-14T08:26:27.423Z,2.93
2023-02-14T08:28:54.395Z,3.00
2023-02-14T08:31:35.037Z,3.05
2023-02-14T08:34:02.974Z,3.05
2023-02-14T08:36:29.595Z,3.17
2023-02-14T08:38:57.662Z,3.21
2023-02-14T08:41:25.013Z,3.30
2023-02-14T08:43:51.908Z,3.31
2023-02-14T08:46:18.619Z,3.34
2023-02-14T08:48:45.706Z,3.38
2023-02-14T08:51:14.427Z,3.34
2023-02-14T08:53:41.844Z,3.42
2023-02-14T08:56:14.842Z,3.47
2023-02-14T08:58:41.650Z,3.46
2023-02-14T09:01:13.858Z,3.48
2023-02-14T09:03:40.780Z,3.56
2023-02-14T09:06:10.014Z,3.67
2023-02-14T09:08:38.176Z,3.69
2023-02-14T09:11:16.380Z,3.82
2023-02-14T09:13:43.627Z,3.88
2023-02-14T09:16:11.972Z,3.92
2023-02-14T09:18:40.209Z,4.04
2023-02-14T09:21:09.915Z,4.12
2023-02-14T09:23:36.995Z,4.26
2023-02-14T09:26:06.186Z,4.32
2023-02-14T09:28:33.164Z,4.51
2023-02-14T09:31:12.229Z,4.52
2023-02-14T09:33:39.366Z,4.57
2023-02-14T09:36:18.842Z,4.63
2023-02-14T09:38:46.003Z,4.71
2023-02-14T09:41:28.592Z,4.71
2023-02-14T09:44:07.691Z,4.77
2023-02-14T09:46:45.469Z,4.80
2023-02-14T09:49:16.144Z,5.07
2023-02-14T09:51:49.338Z,5.11
2023-02-14T09:54:27.537Z,5.30
2023-02-14T09:57:00.549Z,5.43
2023-02-14T10:00:03.409Z,5.66
2023-02-14T10:02:48.919Z,5.75
2023-02-14T10:05:23.659Z,5.83
2023-02-14T10:08:08.666Z,5.77
2023-02-14T10:10:43.977Z,5.77
2023-02-14T10:13:48.497Z,6.08
2023-02-14T10:16:33.824Z,6.31
2023-02-14T10:19:03.078Z,6.43
2023-02-14T10:21:39.941Z,6.45
2023-02-14T10:24:49.768Z,6.31
2023-02-14T10:27:34.908Z,6.35
2023-02-14T10:30:03.472Z,6.20
2023-02-14T10:32:47.595Z,6.04
2023-02-14T10:35:31.348Z,6.00
2023-02-14T10:38:04.069Z,6.05
2023-02-14T10:40:45.084Z,6.40
2023-02-14T10:43:20.795Z,6.58
2023-02-14T10:46:13.662Z,6.74
2023-02-14T10:48:59.614Z,6.91
2023-02-14T10:51:33.489Z,6.89
2023-02-14T10:54:25.825Z,7.00
2023-02-14T10:57:04.411Z,7.34
2023-02-14T10:59:40.423Z,7.58
2023-02-14T11:02:13.738Z,7.70
2023-02-14T11:04:42.143Z,7.71
2023-02-14T11:07:14.547Z,7.69
2023-02-14T11:09:41.346Z,7.70
2023-02-14T11:12:08.766Z,7.93
2023-02-14T11:14:38.448Z,8.26
2023-02-14T11:17:28.708Z,8.35
2023-02-14T11:20:06.401Z,8.41
2023-02-14T11:22:35.345Z,8.61
2023-02-14T11:25:27.158Z,8.56
2023-02-14T11:28:05.859Z,8.75
2023-02-14T11:30:41.143Z,8.67
2023-02-14T11:33:13.834Z,8.74
2023-02-14T11:35:40.751Z,8.86
2023-02-14T11:38:30.492Z,9.14
2023-02-14T11:40:59.723Z,9.26
2023-02-14T11:43:37.095Z,9.22
2023-02-14T11:46:07.901Z,9.38
2023-02-14T11:48:38.551Z,9.31
2023-02-14T11:51:16.622Z,9.29
2023-02-14T11:53:47.864Z,9.33
2023-02-14T11:56:17.551Z,9.32
2023-02-14T11:59:03.775Z,9.45
2023-02-14T12:01:33.848Z,9.47
2023-02-14T12:04:07.511Z,9.56
2023-02-14T12:06:36.259Z,9.62
2023-02-14T12:09:21.950Z,9.70
2023-02-14T12:12:00.721Z,9.67
2023-02-14T12:14:36.656Z,9.67
2023-02-14T12:17:23.364Z,9.78
2023-02-14T12:19:52.870Z,9.85
2023-02-14T12:22:28.408Z,9.85
2023-02-14T12:25:21.394Z,10.03
2023-02-14T12:27:56.918Z,10.20
2023-02-14T12:30:25.048Z,10.29
2023-02-14T12:32:54.593Z,10.24
2023-02-14T12:35:30.112Z,10.48
2023-02-14T12:38:15.498Z,10.62
2023-02-14T12:41:06.396Z,10.87
2023-02-14T12:44:05.157Z,11.03
2023-02-14T12:46:37.872Z,11.09
2023-02-14T12:49:26.310Z,11.20
2023-02-14T12:52:45.579Z,11.34
2023-02-14T12:55:12.311Z,11.50
2023-02-14T12:58:00.950Z,11.52
2023-02-14T13:00:42.861Z,11.50
2023-02-14T13:03:15.424Z,11.38
2023-02-14T13:05:51.074Z,11.32
2023-02-14T13:08:20.484Z,11.13
2023-02-14T13:11:05.843Z,10.78
2023-02-14T13:13:50.975Z,10.45
2023-02-14T13:16:31.565Z,10.34
2023-02-14T13:19:12.091Z,10.24
2023-02-14T13:21:40.820Z,10.21
2023-02-14T13:24:29.510Z,10.25
2023-02-14T13:27:00.804Z,10.28
2023-02-14T13:29:43.110Z,10.36
2023-02-14T13:32:14.168Z,10.32
2023-02-14T13:34:47.110Z,10.44
2023-02-14T13:37:17.796Z,10.68
2023-02-14T13:40:03.250Z,11.15
2023-02-14T13:42:49.911Z,11.12
2023-02-14T13:45:38.201Z,11.28
2023-02-14T13:48:20.930Z,11.36
2023-02-14T13:51:05.874Z,11.17
2023-02-14T13:53:32.588Z,11.05
2023-02-14T13:55:59.786Z,11.01
2023-02-14T13:58:27.470Z,11.08
2023-02-14T14:00:55.150Z,11.42
2023-02-14T14:03:27.784Z,11.86
2023-02-14T14:06:08.956Z,12.38
2023-02-14T14:08:38.584Z,12.80
2023-02-14T14:11:11.948Z,12.89
2023-02-14T14:13:41.365Z,13.17
2023-02-14T14:16:27.880Z,13.44
2023-02-14T14:19:18.451Z,13.48
2023-02-14T14:21:59.897Z,13.65
2023-02-14T14:24:30.199Z,13.63
2023-02-14T14:27:07.032Z,13.67
2023-02-14T14:29:55.920Z,13.65
2023-02-14T14:32:30.407Z,13.69
2023-02-14T14:34:58.637Z,13.74
2023-02-14T14:37:28.528Z,13.86
2023-02-14T14:39:58.281Z,13.98
2023-02-14T14:42:32.290Z,14.12
2023-02-14T14:45:07.016Z,14.20
2023-02-14T14:47:45.217Z,14.18
2023-02-14T14:50:22.998Z,14.22
2023-02-14T14:52:53.469Z,14.18
2023-02-14T14:55:26.534Z,14.10
2023-02-14T14:58:03.817Z,14.00
2023-02-14T15:00:38.764Z,13.91
2023-02-14T15:03:07.193Z,13.81
2023-02-14T15:05:38.252Z,13.74
2023-02-14T15:08:32.925Z,13.63
2023-02-14T15:11:12.976Z,13.55
2023-02-14T15:13:50.838Z,13.55
2023-02-14T15:16:38.305Z,13.57
2023-02-14T15:19:37.324Z,13.56
2023-02-14T15:22:18.300Z,13.58
2023-02-14T15:24:45.519Z,13.56
2023-02-14T15:27:24.013Z,13.57
2023-02-14T15:30:02.532Z,13.53
2023-02-14T15:32:32.124Z,13.52
2023-02-14T15:35:03.181Z,13.45
2023-02-14T15:37:30.390Z,13.40
2023-02-14T15:39:57.475Z,13.30
2023-02-14T15:42:32.441Z,13.24
2023-02-14T15:45:24.385Z,13.20
2023-02-14T15:47:53.947Z,13.12
2023-02-14T15:50:25.977Z,12.97
2023-02-14T15:52:56.280Z,12.81
2023-02-14T15:55:26.704Z,12.69
2023-02-14T15:58:20.930Z,12.49
2023-02-14T16:00:49.085Z,12.29
2023-02-14T16:03:22.595Z,12.23
2023-02-14T16:05:50.809Z,12.05
2023-02-14T16:08:31.206Z,11.89
2023-02-14T16:11:32.085Z,11.87
2023-02-14T16:13:59.126Z,11.69
2023-02-14T16:16:25.882Z,11.48
2023-02-14T16:18:56.560Z,11.30
2023-02-14T16:21:25.112Z,11.00
2023-02-14T16:24:04.043Z,10.81
2023-02-14T16:26:31.430Z,10.65
2023-02-14T16:28:58.170Z,10.53
2023-02-14T16:31:25.389Z,10.45
2023-02-14T16:33:52.137Z,10.32
2023-02-14T16:36:24.657Z,10.17
2023-02-14T16:38:51.686Z,10.04
2023-02-14T16:41:24.639Z,10.00
2023-02-14T16:43:51.601Z,9.88
2023-02-14T16:46:21.905Z,9.78
2023-02-14T16:48:52.680Z,9.70
2023-02-14T16:51:22.555Z,9.59
2023-02-14T16:53:50.109Z,9.40
2023-02-14T16:56:19.977Z,9.34
2023-02-14T16:58:47.550Z,9.24
2023-02-14T17:01:14.406Z,9.17
2023-02-14T17:03:42.667Z,9.13
2023-02-14T17:06:16.963Z,9.12
2023-02-14T17:08:44.182Z,9.04
2023-02-14T17:11:11.116Z,8.93
2023-02-14T17:13:42.241Z,8.82
2023-02-14T17:16:12.664Z,8.71
2023-02-14T17:18:42.090Z,8.68
2023-02-14T17:21:09.404Z,8.58
2023-02-14T17:23:36.213Z,8.43
2023-02-14T17:26:02.967Z,8.42
2023-02-14T17:28:29.957Z,8.46
2023-02-14T17:30:58.309Z,8.35
2023-02-14T17:33:26.951Z,8.23
2023-02-14T17:35:53.661Z,8.33
2023-02-14T17:38:21.514Z,8.26
2023-02-14T17:40:48.115Z,8.29
2023-02-14T17:43:15.019Z,8.19
2023-02-14T17:45:41.743Z,8.17
2023-02-14T17:48:11.339Z,8.18
2023-02-14T17:50:38.384Z,8.07
2023-02-14T17:53:05.254Z,8.01
2023-02-14T17:55:31.978Z,7.95
2023-02-14T17:57:58.652Z,8.05
2023-02-14T18:00:25.598Z,8.08
2023-02-14T18:02:52.281Z,7.98
2023-02-14T18:05:18.958Z,8.03
2023-02-14T18:07:45.887Z,7.84
2023-02-14T18:10:12.679Z,7.78
2023-02-14T18:12:39.375Z,7.84
2023-02-14T18:15:06.396Z,7.84
2023-02-14T18:17:33.087Z,7.72
2023-02-14T18:20:00.091Z,7.67
2023-02-14T18:22:28.486Z,7.70
2023-02-14T18:24:58.487Z,7.55
2023-02-14T18:27:26.034Z,7.50
2023-02-14T18:29:52.692Z,7.56
2023-02-14T18:32:19.417Z,7.55
2023-02-14T18:34:46.215Z,7.44
2023-02-14T18:37:14.043Z,7.46
2023-02-14T18:39:40.972Z,7.55
2023-02-14T18:42:07.793Z,7.49
2023-02-14T18:44:36.656Z,7.39
2023-02-14T18:47:03.400Z,7.43
2023-02-14T18:49:30.188Z,7.22
2023-02-14T18:51:58.796Z,7.25
2023-02-14T18:54:25.515Z,7.25
2023-02-14T18:56:52.233Z,7.16
2023-02-14T18:59:18.983Z,7.06
2023-02-14T19:01:46.140Z,7.07
2023-02-14T19:04:13.778Z,7.10
2023-02-14T19:06:41.944Z,7.21
2023-02-14T19:09:11.174Z,7.19
2023-02-14T19:11:38.588Z,7.16
2023-02-14T19:14:10.132Z,7.18
2023-02-14T19:16:50.424Z,7.04
2023-02-14T19:19:17.812Z,7.07
2023-02-14T19:21:44.505Z,7.05
2023-02-14T19:24:11.897Z,6.99
2023-02-14T19:26:42.092Z,6.86
2023-02-14T19:29:14.364Z,6.87
2023-02-14T19:31:44.334Z,6.94
2023-02-14T19:34:17.197Z,6.92
2023-02-14T19:36:44.102Z,6.82
2023-02-14T19:39:11.515Z,6.77
2023-02-14T19:41:39.789Z,6.63
2023-02-14T19:44:08.482Z,6.69
2023-02-14T19:46:35.471Z,6.64
2023-02-14T19:49:02.164Z,6.57
2023-02-14T19:51:35.927Z,6.50
2023-02-14T19:54:05.633Z,6.54
2023-02-14T19:56:34.792Z,6.48
2023-02-14T19:59:07.708Z,6.49
2023-02-14T20:01:44.442Z,6.39
2023-02-14T20:04:15.004Z,6.44
2023-02-14T20:06:43.063Z,6.35
2023-02-14T20:09:09.846Z,6.25
2023-02-14T20:11:40.109Z,6.13
2023-02-14T20:14:08.603Z,6.06
2023-02-14T20:16:37.779Z,6.19
2023-02-14T20:19:08.279Z,6.10
2023-02-14T20:21:35.569Z,6.04
2023-02-14T20:24:03.887Z,6.24
2023-02-14T20:26:32.788Z,6.31
2023-02-14T20:29:03.792Z,6.21
2023-02-14T20:31:32.698Z,6.22
2023-02-14T20:34:00.312Z,6.00
2023-02-14T20:36:27.969Z,6.01
2023-02-14T20:38:56.240Z,6.07
2023-02-14T20:41:23.862Z,6.13
2023-02-14T20:43:50.689Z,6.12
2023-02-14T20:46:18.276Z,6.05
2023-02-14T20:48:45.012Z,6.09
2023-02-14T20:51:17.242Z,6.02
2023-02-14T20:53:45.542Z,6.05
2023-02-14T20:56:13.167Z,5.97
2023-02-14T20:58:41.027Z,5.98
2023-02-14T21:01:10.626Z,5.87
2023-02-14T21:03:37.722Z,5.81
2023-02-14T21:06:05.842Z,5.71
2023-02-14T21:08:33.423Z,5.70
2023-02-14T21:11:00.440Z,5.68
2023-02-14T21:13:27.479Z,5.71
2023-02-14T21:15:54.353Z,5.71
2023-02-14T21:18:21.606Z,5.67
2023-02-14T21:20:48.516Z,5.76
2023-02-14T21:23:15.335Z,5.63
2023-02-14T21:25:42.807Z,5.56
2023-02-14T21:28:09.501Z,5.55
2023-02-14T21:30:36.246Z,5.60
2023-02-14T21:33:04.263Z,5.64
2023-02-14T21:35:31.065Z,5.64
2023-02-14T21:37:57.772Z,5.52
2023-02-14T21:40:24.744Z,5.45
2023-02-14T21:42:51.736Z,5.33
2023-02-14T21:45:37.234Z,5.35
2023-02-14T21:48:22.477Z,5.40
2023-02-14T21:50:49.219Z,5.47
2023-02-14T21:53:15.869Z,5.32
2023-02-14T21:55:42.931Z,5.25
2023-02-14T21:58:09.599Z,5.25
2023-02-14T22:00:36.359Z,5.21
2023-02-14T22:03:03.031Z,5.14
2023-02-14T22:05:29.759Z,5.12
2023-02-14T22:07:56.379Z,5.14
2023-02-14T22:10:23.184Z,5.24
2023-02-14T22:12:49.923Z,5.30
2023-02-14T22:15:16.559Z,5.26
2023-02-14T22:17:43.473Z,5.25
2023-02-14T22:20:10.465Z,5.17
2023-02-14T22:22:37.146Z,5.18
2023-02-14T22:25:03.955Z,5.19
2023-02-14T22:27:30.869Z,5.10
2023-02-14T22:29:57.634Z,4.97
2023-02-14T22:32:24.384Z,4.80
2023-02-14T22:34:51.165Z,4.90
2023-02-14T22:37:17.770Z,4.87
2023-02-14T22:39:44.391Z,4.86
2023-02-14T22:42:11.080Z,4.83
2023-02-14T22:44:37.934Z,4.87
2023-02-14T22:47:04.617Z,4.87
2023-02-14T22:49:31.412Z,4.82
2023-02-14T22:51:58.104Z,4.77
2023-02-14T22:54:24.752Z,4.66
2023-02-14T22:56:51.521Z,4.65
2023-02-14T22:59:24.218Z,4.74
2023-02-14T23:01:52.896Z,4.68
2023-02-14T23:04:22.355Z,4.69
2023-02-14T23:06:49.296Z,4.57
2023-02-14T23:09:16.490Z,4.66
2023-02-14T23:11:45.004Z,4.76
2023-02-14T23:14:35.104Z,4.75
2023-02-14T23:17:21.806Z,4.57
2023-02-14T23:20:07.039Z,4.57
2023-02-14T23:22:38.825Z,4.54
2023-02-14T23:25:08.184Z,4.65
2023-02-14T23:27:40.872Z,4.68
2023-02-14T23:30:11.170Z,4.51
2023-02-14T23:32:37.928Z,4.52
2023-02-14T23:35:05.539Z,4.58
2023-02-14T23:37:32.268Z,4.52
2023-02-14T23:39:58.916Z,4.38
2023-02-14T23:42:25.608Z,4.37
2023-02-14T23:44:52.443Z,4.41
2023-02-14T23:47:19.121Z,4.43
2023-02-14T23:49:46.057Z,4.48
2023-02-14T23:52:13.728Z,4.45
2023-02-14T23:54:40.578Z,4.36
2023-02-14T23:57:08.845Z,4.38
2023-02-14T23:59:35.718Z,4.33
